createdAt,value
2019-03-24T00:00:07.222Z,11.58
2019-03-24T00:02:34.613Z,11.42
2019-03-24T00:05:02.016Z,11.32
2019-03-24T00:07:29.420Z,11.15
2019-03-24T00:09:57.103Z,11.00
2019-03-24T00:12:24.508Z,10.87
2019-03-24T00:14:51.938Z,10.86
2019-03-24T00:17:19.768Z,10.90
2019-03-24T00:19:47.215Z,10.90
2019-03-24T00:22:14.625Z,10.89
2019-03-24T00:24:42.055Z,10.79
2019-03-24T00:27:10.486Z,10.83
2019-03-24T00:29:37.892Z,10.93
2019-03-24T00:32:05.302Z,11.02
2019-03-24T00:34:32.723Z,10.93
2019-03-24T00:37:00.195Z,10.85
2019-03-24T00:39:27.620Z,10.86
2019-03-24T00:41:55.019Z,10.92
2019-03-24T00:44:22.520Z,10.94
2019-03-24T00:46:49.935Z,10.91
2019-03-24T00:49:17.499Z,10.81
2019-03-24T00:51:44.919Z,10.81
2019-03-24T00:54:12.361Z,10.78
2019-03-24T00:56:39.821Z,10.66
2019-03-24T00:59:07.614Z,10.53
2019-03-24T01:01:35.027Z,10.52
2019-03-24T01:04:02.674Z,10.46
2019-03-24T01:06:30.072Z,10.43
2019-03-24T01:08:57.594Z,10.38
2019-03-24T01:11:25.167Z,10.33
2019-03-24T01:13:52.719Z,10.39
2019-03-24T01:16:20.963Z,10.41
2019-03-24T01:18:48.426Z,10.31
2019-03-24T01:21:15.896Z,10.38
2019-03-24T01:23:43.308Z,10.28
2019-03-24T01:26:10.724Z,10.22
2019-03-24T01:28:38.132Z,10.13
2019-03-24T01:31:05.563Z,10.05
2019-03-24T01:33:33.632Z,9.97
2019-03-24T01:36:01.075Z,10.09
2019-03-24T01:38:28.499Z,10.19
2019-03-24T01:40:55.968Z,10.22
2019-03-24T01:43:23.401Z,10.25
2019-03-24T01:45:58.474Z,10.13
2019-03-24T01:48:19.149Z,9.86
2019-03-24T01:50:46.570Z,9.86
2019-03-24T01:53:14.073Z,9.79
2019-03-24T01:55:41.522Z,9.71
2019-03-24T01:58:09.114Z,9.73
2019-03-24T02:00:36.625Z,9.72
2019-03-24T02:03:04.080Z,9.77
2019-03-24T02:05:31.494Z,9.65
2019-03-24T02:07:58.905Z,9.64
2019-03-24T02:10:26.439Z,9.59
2019-03-24T02:12:53.835Z,9.68
2019-03-24T02:15:21.249Z,9.62
2019-03-24T02:17:48.639Z,9.57
2019-03-24T02:20:16.044Z,9.55
2019-03-24T02:22:43.563Z,9.61
2019-03-24T02:25:10.992Z,9.72
2019-03-24T02:27:38.399Z,9.79
2019-03-24T02:30:06.338Z,9.79
2019-03-24T02:32:33.746Z,9.78
2019-03-24T02:35:01.142Z,9.79
2019-03-24T02:37:28.551Z,9.74
2019-03-24T02:39:56.111Z,9.68
2019-03-24T02:42:23.506Z,9.66
2019-03-24T02:44:50.963Z,9.68
2019-03-24T02:47:18.528Z,9.59
2019-03-24T02:49:45.985Z,9.66
2019-03-24T02:52:13.446Z,9.70
2019-03-24T02:54:41.239Z,9.76
2019-03-24T02:57:08.631Z,9.79
2019-03-24T02:59:36.046Z,9.81
2019-03-24T03:02:03.574Z,9.79
2019-03-24T03:04:31.036Z,9.64
2019-03-24T03:06:58.438Z,9.33
2019-03-24T03:09:25.856Z,9.02
2019-03-24T03:11:53.263Z,8.93
2019-03-24T03:14:20.679Z,8.91
2019-03-24T03:16:48.090Z,8.94
2019-03-24T03:19:15.675Z,8.88
2019-03-24T03:21:43.140Z,8.81
2019-03-24T03:24:10.549Z,8.69
2019-03-24T03:26:38.065Z,8.66
2019-03-24T03:29:05.517Z,8.65
2019-03-24T03:31:32.933Z,8.60
2019-03-24T03:34:00.338Z,8.68
2019-03-24T03:36:28.183Z,8.74
2019-03-24T03:38:55.511Z,8.73
2019-03-24T03:41:23.022Z,8.73
2019-03-24T03:43:50.454Z,8.69
2019-03-24T03:46:17.937Z,8.72
2019-03-24T03:48:45.328Z,8.79
2019-03-24T03:51:12.740Z,8.68
2019-03-24T03:53:40.171Z,8.60
2019-03-24T03:56:07.660Z,8.50
2019-03-24T03:58:35.079Z,8.47
2019-03-24T04:01:03.065Z,8.33
2019-03-24T04:03:30.456Z,8.25
2019-03-24T04:05:57.881Z,8.28
2019-03-24T04:08:25.266Z,8.38
2019-03-24T04:10:52.685Z,8.49
2019-03-24T04:13:20.111Z,8.59
2019-03-24T04:15:47.560Z,8.58
2019-03-24T04:18:15.075Z,8.61
2019-03-24T04:20:42.470Z,8.54
2019-03-24T04:23:09.923Z,8.46
2019-03-24T04:25:37.564Z,8.38
2019-03-24T04:28:05.115Z,8.41
2019-03-24T04:30:32.507Z,8.39
2019-03-24T04:32:59.978Z,8.34
2019-03-24T04:35:27.480Z,8.29
2019-03-24T04:37:55.488Z,8.23
2019-03-24T04:40:23.056Z,8.13
2019-03-24T04:42:50.412Z,8.04
2019-03-24T04:45:17.951Z,7.93
2019-03-24T04:47:45.603Z,7.97
2019-03-24T04:50:13.004Z,7.96
2019-03-24T04:52:40.507Z,7.83
2019-03-24T04:55:07.960Z,7.73
2019-03-24T04:57:35.377Z,7.72
2019-03-24T05:00:02.784Z,7.76
2019-03-24T05:02:30.182Z,7.73
2019-03-24T05:04:57.580Z,7.81
2019-03-24T05:07:24.979Z,7.99
2019-03-24T05:09:54.418Z,7.98
2019-03-24T05:12:19.841Z,8.07
2019-03-24T05:14:47.241Z,8.18
2019-03-24T05:17:14.647Z,8.26
2019-03-24T05:19:43.039Z,8.27
2019-03-24T05:22:10.445Z,8.21
2019-03-24T05:24:37.848Z,8.20
2019-03-24T05:27:05.286Z,8.14
2019-03-24T05:29:32.723Z,8.16
2019-03-24T05:32:00.159Z,8.08
2019-03-24T05:34:27.579Z,7.96
2019-03-24T05:36:54.993Z,7.84
2019-03-24T05:39:22.410Z,7.94
2019-03-24T05:41:49.866Z,7.88
2019-03-24T05:44:17.432Z,7.87
2019-03-24T05:46:44.867Z,7.92
2019-03-24T05:49:12.262Z,7.94
2019-03-24T05:51:39.733Z,7.87
2019-03-24T05:54:07.177Z,7.83
2019-03-24T05:56:34.572Z,7.86
2019-03-24T05:59:01.959Z,7.83
2019-03-24T06:01:29.393Z,7.87
2019-03-24T06:03:56.835Z,8.02
2019-03-24T06:06:24.229Z,8.12
2019-03-24T06:08:51.655Z,8.14
2019-03-24T06:11:19.055Z,8.32
2019-03-24T06:13:46.584Z,8.36
2019-03-24T06:16:14.052Z,8.33
2019-03-24T06:18:41.497Z,8.42
2019-03-24T06:21:08.963Z,8.46
2019-03-24T06:23:36.390Z,8.61
2019-03-24T06:26:03.807Z,8.67
2019-03-24T06:28:31.244Z,8.90
2019-03-24T06:30:58.653Z,9.15
2019-03-24T06:33:26.099Z,9.36
2019-03-24T06:35:53.515Z,9.39
2019-03-24T06:38:20.935Z,9.44
2019-03-24T06:40:49.595Z,9.53
2019-03-24T06:43:17.041Z,9.59
2019-03-24T06:45:44.658Z,9.66
2019-03-24T06:48:12.134Z,9.69
2019-03-24T06:50:39.545Z,9.72
2019-03-24T06:53:07.049Z,9.72
2019-03-24T06:55:34.500Z,9.78
2019-03-24T06:58:01.906Z,9.71
2019-03-24T07:00:29.407Z,9.73
2019-03-24T07:02:56.861Z,9.79
2019-03-24T07:05:24.256Z,9.87
2019-03-24T07:07:51.692Z,10.02
2019-03-24T07:10:19.144Z,10.15
2019-03-24T07:12:46.625Z,10.22
2019-03-24T07:15:14.054Z,10.33
2019-03-24T07:17:41.501Z,10.47
2019-03-24T07:20:09.064Z,10.68
2019-03-24T07:22:36.530Z,10.76
2019-03-24T07:25:03.991Z,10.91
2019-03-24T07:27:31.434Z,11.09
2019-03-24T07:29:58.893Z,11.34
2019-03-24T07:32:25.940Z,11.64
2019-03-24T07:34:52.911Z,11.80
2019-03-24T07:37:19.874Z,11.82
2019-03-24T07:39:46.874Z,11.90
2019-03-24T07:42:13.963Z,11.99
2019-03-24T07:44:40.914Z,12.00
2019-03-24T07:47:12.114Z,12.10
2019-03-24T07:49:39.525Z,12.11
2019-03-24T07:52:07.031Z,12.19
2019-03-24T07:54:34.437Z,12.43
2019-03-24T07:57:01.948Z,12.72
2019-03-24T07:59:29.405Z,13.05
2019-03-24T08:01:56.799Z,13.32
2019-03-24T08:04:24.230Z,13.38
2019-03-24T08:06:51.706Z,13.53
2019-03-24T08:09:19.151Z,13.59
2019-03-24T08:11:46.656Z,13.56
2019-03-24T08:14:14.264Z,13.74
2019-03-24T08:16:41.749Z,13.99
2019-03-24T08:19:09.171Z,14.20
2019-03-24T08:21:36.737Z,14.38
2019-03-24T08:24:04.184Z,14.50
2019-03-24T08:26:31.129Z,14.59
2019-03-24T08:28:58.554Z,14.66
2019-03-24T08:31:25.972Z,14.61
2019-03-24T08:33:53.422Z,14.52
2019-03-24T08:36:20.841Z,14.42
2019-03-24T08:38:48.255Z,14.19
2019-03-24T08:41:15.667Z,14.17
2019-03-24T08:43:43.236Z,14.22
2019-03-24T08:46:10.635Z,14.36
2019-03-24T08:48:41.048Z,14.56
2019-03-24T08:51:05.597Z,14.66
2019-03-24T08:53:33.005Z,14.77
2019-03-24T08:56:00.414Z,15.00
2019-03-24T08:58:27.831Z,14.98
2019-03-24T09:00:55.271Z,15.09
2019-03-24T09:03:22.698Z,15.28
2019-03-24T09:05:50.098Z,15.51
2019-03-24T09:08:17.611Z,15.65
2019-03-24T09:10:45.071Z,15.63
2019-03-24T09:13:12.551Z,15.56
2019-03-24T09:15:39.997Z,15.46
2019-03-24T09:18:07.428Z,15.59
2019-03-24T09:20:41.675Z,15.84
2019-03-24T09:23:02.329Z,15.96
2019-03-24T09:25:29.900Z,16.01
2019-03-24T09:27:56.855Z,16.22
2019-03-24T09:30:25.723Z,16.36
2019-03-24T09:32:52.690Z,16.34
2019-03-24T09:35:20.107Z,16.63
2019-03-24T09:37:47.094Z,16.86
2019-03-24T09:40:14.132Z,17.07
2019-03-24T09:42:41.591Z,17.04
2019-03-24T09:45:09.133Z,16.99
2019-03-24T09:47:36.550Z,17.12
2019-03-24T09:50:03.946Z,17.38
2019-03-24T09:52:30.962Z,17.56
2019-03-24T09:54:57.970Z,17.80
2019-03-24T09:57:25.166Z,18.13
2019-03-24T09:59:52.593Z,18.34
2019-03-24T10:02:20.173Z,18.19
2019-03-24T10:04:47.619Z,18.12
2019-03-24T10:07:14.584Z,18.09
2019-03-24T10:09:42.046Z,18.07
2019-03-24T10:12:09.468Z,17.99
2019-03-24T10:14:36.900Z,18.30
2019-03-24T10:17:04.307Z,18.77
2019-03-24T10:19:31.750Z,19.12
2019-03-24T10:21:58.876Z,19.24
2019-03-24T10:24:26.533Z,19.51
2019-03-24T10:26:53.992Z,19.73
2019-03-24T10:29:21.447Z,19.98
2019-03-24T10:31:48.900Z,20.13
2019-03-24T10:34:16.459Z,20.30
2019-03-24T10:36:43.470Z,20.44
2019-03-24T10:39:11.080Z,20.65
2019-03-24T10:41:38.154Z,20.99
2019-03-24T10:44:05.599Z,21.22
2019-03-24T10:46:33.168Z,21.40
2019-03-24T10:49:00.613Z,21.59
2019-03-24T10:51:28.034Z,21.81
2019-03-24T10:53:55.442Z,21.89
2019-03-24T10:56:22.985Z,21.95
2019-03-24T10:58:50.412Z,22.03
2019-03-24T11:01:18.801Z,22.19
2019-03-24T11:03:46.197Z,22.35
2019-03-24T11:06:13.698Z,22.42
2019-03-24T11:08:41.129Z,22.56
2019-03-24T11:11:08.565Z,22.72
2019-03-24T11:13:36.008Z,22.91
2019-03-24T11:16:03.134Z,23.20
2019-03-24T11:18:30.100Z,23.47
2019-03-24T11:20:57.090Z,23.68
2019-03-24T11:23:24.083Z,23.85
2019-03-24T11:25:52.286Z,24.03
2019-03-24T11:28:20.709Z,24.18
2019-03-24T11:30:48.121Z,24.29
2019-03-24T11:33:15.564Z,24.49
2019-03-24T11:35:42.988Z,24.68
2019-03-24T11:38:10.582Z,24.79
2019-03-24T11:40:37.524Z,24.94
2019-03-24T11:43:04.475Z,25.16
2019-03-24T11:45:31.450Z,25.00
2019-03-24T11:47:58.417Z,25.00
2019-03-24T11:50:25.379Z,25.16
2019-03-24T11:52:52.538Z,25.29
2019-03-24T11:55:19.510Z,25.44
2019-03-24T11:57:46.474Z,25.59
2019-03-24T12:00:13.475Z,25.90
2019-03-24T12:02:40.575Z,26.14
2019-03-24T12:05:07.979Z,26.22
2019-03-24T12:07:35.022Z,26.28
2019-03-24T12:10:01.984Z,26.50
2019-03-24T12:12:28.995Z,26.66
2019-03-24T12:14:56.576Z,26.84
2019-03-24T12:17:23.515Z,27.08
2019-03-24T12:19:56.710Z,27.15
2019-03-24T12:22:18.436Z,27.29
2019-03-24T12:24:45.586Z,27.36
2019-03-24T12:27:13.060Z,27.14
2019-03-24T12:29:40.493Z,27.18
2019-03-24T12:32:07.908Z,27.15
2019-03-24T12:34:35.314Z,27.25
2019-03-24T12:37:02.737Z,27.33
2019-03-24T12:39:30.173Z,27.43
2019-03-24T12:41:57.595Z,27.50
2019-03-24T12:44:25.047Z,27.61
2019-03-24T12:46:52.474Z,27.69
2019-03-24T12:49:19.903Z,27.82
2019-03-24T12:51:47.304Z,27.96
2019-03-24T12:54:15.374Z,28.12
2019-03-24T12:56:42.412Z,28.24
2019-03-24T12:59:09.558Z,28.31
2019-03-24T13:01:36.505Z,28.38
2019-03-24T13:04:03.923Z,28.46
2019-03-24T13:06:31.440Z,28.50
2019-03-24T13:08:58.407Z,28.58
2019-03-24T13:11:25.426Z,28.68
2019-03-24T13:13:52.549Z,28.86
2019-03-24T13:16:19.660Z,28.80
2019-03-24T13:18:46.684Z,28.78
2019-03-24T13:21:13.646Z,28.86
2019-03-24T13:23:40.796Z,28.95
2019-03-24T13:26:07.927Z,29.09
2019-03-24T13:28:34.921Z,29.29
2019-03-24T13:31:01.869Z,29.38
2019-03-24T13:33:28.839Z,29.41
2019-03-24T13:36:01.433Z,29.59
2019-03-24T13:38:28.859Z,29.66
2019-03-24T13:40:55.808Z,29.60
2019-03-24T13:43:22.783Z,29.49
2019-03-24T13:45:49.712Z,29.50
2019-03-24T13:48:16.686Z,29.52
2019-03-24T13:50:43.659Z,29.43
2019-03-24T13:53:11.382Z,29.37
2019-03-24T13:55:38.373Z,29.30
2019-03-24T13:58:05.308Z,29.23
2019-03-24T14:00:32.267Z,29.22
2019-03-24T14:02:59.288Z,29.38
2019-03-24T14:05:26.327Z,29.52
2019-03-24T14:07:53.284Z,29.53
2019-03-24T14:10:20.236Z,29.45
2019-03-24T14:12:47.192Z,29.52
2019-03-24T14:15:14.166Z,29.44
2019-03-24T14:17:41.165Z,29.40
2019-03-24T14:20:08.151Z,29.27
2019-03-24T14:22:35.208Z,29.23
2019-03-24T14:25:02.166Z,29.16
2019-03-24T14:27:29.310Z,29.24
2019-03-24T14:29:56.323Z,29.24
2019-03-24T14:32:23.268Z,28.99
2019-03-24T14:34:50.227Z,28.89
2019-03-24T14:37:17.155Z,28.77
2019-03-24T14:39:44.094Z,28.36
2019-03-24T14:42:11.062Z,27.97
2019-03-24T14:44:38.096Z,28.06
2019-03-24T14:47:05.737Z,28.24
2019-03-24T14:49:34.031Z,28.24
2019-03-24T14:52:00.982Z,28.12
2019-03-24T14:54:27.969Z,28.00
2019-03-24T14:56:55.029Z,28.00
2019-03-24T14:59:22.003Z,27.95
2019-03-24T15:01:49.154Z,27.96
2019-03-24T15:04:16.162Z,27.81
2019-03-24T15:06:43.123Z,27.87
2019-03-24T15:09:10.174Z,27.88
2019-03-24T15:11:37.234Z,27.87
2019-03-24T15:14:04.168Z,27.71
2019-03-24T15:16:31.115Z,27.70
2019-03-24T15:18:58.526Z,27.65
2019-03-24T15:21:25.530Z,27.32
2019-03-24T15:23:52.491Z,26.98
2019-03-24T15:26:19.524Z,26.94
2019-03-24T15:28:46.486Z,26.88
2019-03-24T15:31:13.430Z,26.73
2019-03-24T15:33:40.417Z,26.61
2019-03-24T15:36:07.456Z,26.45
2019-03-24T15:38:34.649Z,26.34
2019-03-24T15:41:01.851Z,26.37
2019-03-24T15:43:28.849Z,26.45
2019-03-24T15:45:56.007Z,26.30
2019-03-24T15:48:23.025Z,26.15
2019-03-24T15:50:50.054Z,26.08
2019-03-24T15:53:17.389Z,25.95
2019-03-24T15:55:44.471Z,26.06
2019-03-24T15:58:11.573Z,26.08
2019-03-24T16:00:40.498Z,26.03
2019-03-24T16:03:07.574Z,25.88
2019-03-24T16:05:34.531Z,25.77
2019-03-24T16:08:02.128Z,25.75
2019-03-24T16:10:35.153Z,25.56
2019-03-24T16:12:56.123Z,25.38
2019-03-24T16:15:23.091Z,25.22
2019-03-24T16:17:51.910Z,25.24
2019-03-24T16:20:17.376Z,25.08
2019-03-24T16:22:44.374Z,24.94
2019-03-24T16:25:11.346Z,24.80
2019-03-24T16:27:38.280Z,24.58
2019-03-24T16:30:06.185Z,24.55
2019-03-24T16:32:34.186Z,24.42
2019-03-24T16:35:01.136Z,24.30
2019-03-24T16:37:28.578Z,24.15
2019-03-24T16:39:55.574Z,23.99
2019-03-24T16:42:22.559Z,23.89
2019-03-24T16:44:49.708Z,23.78
2019-03-24T16:47:18.400Z,23.59
2019-03-24T16:49:45.999Z,23.40
2019-03-24T16:52:13.456Z,23.32
2019-03-24T16:54:40.868Z,23.25
2019-03-24T16:57:08.310Z,22.97
2019-03-24T16:59:35.701Z,22.65
2019-03-24T17:02:03.168Z,22.53
2019-03-24T17:04:30.717Z,22.32
2019-03-24T17:06:58.305Z,22.19
2019-03-24T17:09:25.800Z,22.08
2019-03-24T17:11:53.510Z,21.90
2019-03-24T17:14:20.929Z,21.70
2019-03-24T17:16:48.542Z,21.51
2019-03-24T17:19:15.975Z,21.31
2019-03-24T17:21:50.025Z,21.09
2019-03-24T17:24:11.008Z,20.93
2019-03-24T17:26:38.474Z,20.73
2019-03-24T17:29:05.972Z,20.56
2019-03-24T17:31:33.484Z,20.36
2019-03-24T17:34:00.901Z,20.17
2019-03-24T17:36:28.354Z,19.99
2019-03-24T17:38:56.156Z,19.83
2019-03-24T17:41:23.658Z,19.64
2019-03-24T17:43:51.113Z,19.51
2019-03-24T17:46:19.575Z,19.39
2019-03-24T17:48:46.207Z,19.09
2019-03-24T17:51:13.767Z,18.89
2019-03-24T17:53:41.195Z,18.85
2019-03-24T17:56:08.622Z,18.78
2019-03-24T17:58:36.056Z,18.59
2019-03-24T18:01:03.629Z,18.44
2019-03-24T18:03:31.080Z,18.21
2019-03-24T18:05:59.638Z,17.97
2019-03-24T18:08:25.979Z,17.74
2019-03-24T18:10:53.382Z,17.53
2019-03-24T18:13:20.850Z,17.64
2019-03-24T18:15:48.407Z,17.69
2019-03-24T18:18:15.982Z,17.59
2019-03-24T18:20:43.383Z,17.38
2019-03-24T18:23:11.035Z,17.32
2019-03-24T18:25:38.730Z,17.40
2019-03-24T18:28:06.156Z,17.49
2019-03-24T18:30:33.747Z,17.62
2019-03-24T18:33:01.239Z,17.62
2019-03-24T18:35:28.650Z,17.61
2019-03-24T18:37:56.181Z,17.60
2019-03-24T18:40:23.593Z,17.55
2019-03-24T18:42:51.198Z,17.54
2019-03-24T18:45:18.654Z,17.53
2019-03-24T18:47:46.089Z,17.51
2019-03-24T18:50:13.490Z,17.54
2019-03-24T18:52:40.953Z,17.50
2019-03-24T18:55:08.797Z,17.44
2019-03-24T18:57:36.347Z,17.43
2019-03-24T19:00:07.621Z,17.31
2019-03-24T19:02:35.036Z,17.21
2019-03-24T19:05:02.516Z,17.20
2019-03-24T19:07:30.176Z,17.17
2019-03-24T19:09:57.664Z,17.13
2019-03-24T19:12:25.070Z,17.13
2019-03-24T19:14:52.519Z,17.02
2019-03-24T19:17:20.021Z,16.92
2019-03-24T19:19:47.594Z,16.66
2019-03-24T19:22:15.161Z,16.54
2019-03-24T19:24:42.654Z,16.51
2019-03-24T19:27:10.063Z,16.47
2019-03-24T19:29:37.698Z,16.55
2019-03-24T19:32:05.227Z,16.70
2019-03-24T19:34:32.658Z,16.78
2019-03-24T19:37:00.799Z,16.81
2019-03-24T19:39:28.338Z,16.81
2019-03-24T19:41:55.912Z,16.81
2019-03-24T19:44:23.467Z,16.76
2019-03-24T19:46:51.097Z,16.75
2019-03-24T19:49:18.654Z,16.69
2019-03-24T19:51:46.195Z,16.66
2019-03-24T19:54:13.651Z,16.63
2019-03-24T19:56:41.160Z,16.59
2019-03-24T19:59:08.695Z,16.53
2019-03-24T20:01:36.263Z,16.51
2019-03-24T20:04:03.738Z,16.45
2019-03-24T20:06:31.146Z,16.29
2019-03-24T20:08:58.644Z,16.04
2019-03-24T20:11:26.044Z,15.83
2019-03-24T20:13:53.450Z,15.77
2019-03-24T20:16:20.954Z,15.84
2019-03-24T20:18:48.436Z,15.86
2019-03-24T20:21:15.828Z,15.71
2019-03-24T20:23:43.254Z,15.60
2019-03-24T20:26:10.705Z,15.51
2019-03-24T20:28:38.149Z,15.64
2019-03-24T20:31:05.713Z,15.75
2019-03-24T20:33:33.118Z,15.81
2019-03-24T20:36:00.563Z,15.83
2019-03-24T20:38:28.040Z,15.78
2019-03-24T20:40:55.588Z,15.70
2019-03-24T20:43:23.054Z,15.47
2019-03-24T20:45:50.443Z,15.27
2019-03-24T20:48:17.995Z,15.27
2019-03-24T20:50:45.483Z,15.39
2019-03-24T20:53:17.959Z,15.48
2019-03-24T20:55:40.544Z,15.55
2019-03-24T20:58:07.983Z,15.55
2019-03-24T21:00:35.469Z,15.60
2019-03-24T21:03:02.987Z,15.57
2019-03-24T21:05:30.476Z,15.53
2019-03-24T21:07:57.934Z,15.48
2019-03-24T21:10:26.298Z,15.40
2019-03-24T21:12:53.734Z,15.36
2019-03-24T21:15:21.158Z,15.36
2019-03-24T21:17:48.564Z,15.34
2019-03-24T21:20:16.060Z,15.30
2019-03-24T21:22:43.501Z,15.21
2019-03-24T21:25:10.978Z,15.16
2019-03-24T21:27:38.530Z,15.17
2019-03-24T21:30:05.955Z,15.18
2019-03-24T21:32:33.372Z,15.18
2019-03-24T21:35:00.783Z,15.18
2019-03-24T21:37:28.328Z,15.16
2019-03-24T21:39:55.783Z,15.15
2019-03-24T21:42:23.267Z,15.14
2019-03-24T21:44:50.737Z,15.13
2019-03-24T21:47:18.201Z,15.10
2019-03-24T21:49:45.683Z,15.05
2019-03-24T21:52:13.136Z,15.00
2019-03-24T21:54:40.576Z,14.93
2019-03-24T21:57:08.027Z,14.88
2019-03-24T21:59:35.462Z,14.85
2019-03-24T22:02:02.998Z,14.84
2019-03-24T22:04:30.788Z,14.83
2019-03-24T22:06:58.208Z,14.84
2019-03-24T22:09:25.706Z,14.77
2019-03-24T22:11:53.141Z,14.62
2019-03-24T22:14:20.556Z,14.40
2019-03-24T22:16:47.979Z,14.32
2019-03-24T22:19:15.430Z,14.25
2019-03-24T22:21:42.874Z,14.08
2019-03-24T22:24:10.687Z,13.95
2019-03-24T22:26:38.112Z,13.70
2019-03-24T22:29:05.522Z,13.61
2019-03-24T22:31:33.086Z,13.54
2019-03-24T22:34:00.610Z,13.51
2019-03-24T22:36:28.263Z,13.52
2019-03-24T22:38:55.730Z,13.69
2019-03-24T22:41:23.212Z,13.76
2019-03-24T22:43:50.629Z,13.77
2019-03-24T22:46:18.094Z,13.75
2019-03-24T22:48:45.493Z,13.68
2019-03-24T22:51:12.891Z,13.59
2019-03-24T22:53:40.296Z,13.59
2019-03-24T22:56:07.699Z,13.67
2019-03-24T22:58:35.104Z,13.79
2019-03-24T23:01:02.539Z,13.85
2019-03-24T23:03:29.961Z,13.91
2019-03-24T23:05:57.551Z,13.95
2019-03-24T23:08:25.003Z,13.89
2019-03-24T23:10:52.426Z,13.73
2019-03-24T23:13:19.834Z,13.63
2019-03-24T23:15:47.366Z,13.43
2019-03-24T23:18:14.830Z,13.16
2019-03-24T23:20:42.257Z,13.07
2019-03-24T23:23:09.663Z,13.12
2019-03-24T23:25:37.162Z,13.08
2019-03-24T23:28:04.570Z,13.03
2019-03-24T23:30:31.993Z,13.08
2019-03-24T23:32:59.415Z,13.15
2019-03-24T23:35:26.831Z,13.16
2019-03-24T23:37:54.254Z,13.16
2019-03-24T23:40:21.652Z,13.13
2019-03-24T23:42:49.082Z,13.03
2019-03-24T23:45:16.648Z,12.79
2019-03-24T23:47:44.052Z,12.61
2019-03-24T23:50:11.495Z,12.48
2019-03-24T23:52:38.931Z,12.44
2019-03-24T23:55:06.365Z,12.41
2019-03-24T23:57:33.760Z,12.32
